createdAt,value
2023-05-05T00:00:07.400Z,8.57
2023-05-05T00:00:19.743Z,8.40
2023-05-05T00:00:31.246Z,8.55
2023-05-05T00:00:42.635Z,8.63
2023-05-05T00:00:54.647Z,8.65
2023-05-05T00:01:06.123Z,8.73
2023-05-05T00:01:17.966Z,8.55
2023-05-05T00:01:29.381Z,8.50
2023-05-05T00:01:40.847Z,8.93
2023-05-05T00:01:52.387Z,9.27
2023-05-05T00:02:03.913Z,9.13
2023-05-05T00:02:15.626Z,8.73
2023-05-05T00:02:27.422Z,8.80
2023-05-05T00:02:40.195Z,9.10
2023-05-05T00:02:51.759Z,9.15
2023-05-05T00:03:03.470Z,8.90
2023-05-05T00:03:15.120Z,8.32
2023-05-05T00:03:28.025Z,8.13
2023-05-05T00:03:39.689Z,8.30
2023-05-05T00:03:51.444Z,8.65
2023-05-05T00:04:03.128Z,8.98
2023-05-05T00:04:14.711Z,8.75
2023-05-05T00:04:26.404Z,8.98
2023-05-05T00:04:38.033Z,8.98
2023-05-05T00:04:49.428Z,8.88
2023-05-05T00:05:00.810Z,8.55
2023-05-05T00:05:12.448Z,8.40
2023-05-05T00:05:23.876Z,8.57
2023-05-05T00:05:35.289Z,8.43
2023-05-05T00:05:48.205Z,8.63
2023-05-05T00:05:59.901Z,8.65
2023-05-05T00:06:11.287Z,8.90
2023-05-05T00:06:22.708Z,8.85
2023-05-05T00:06:34.086Z,8.75
2023-05-05T00:06:45.497Z,8.63
2023-05-05T00:06:56.923Z,8.60
2023-05-05T00:07:08.306Z,8.63
2023-05-05T00:07:19.754Z,8.52
2023-05-05T00:07:31.160Z,8.50
2023-05-05T00:07:42.485Z,8.50
2023-05-05T00:07:53.882Z,8.50
2023-05-05T00:08:07.821Z,8.57
2023-05-05T00:08:19.255Z,8.57
2023-05-05T00:08:30.621Z,8.82
2023-05-05T00:08:42.015Z,9.15
2023-05-05T00:08:53.478Z,8.93
2023-05-05T00:09:04.871Z,8.80
2023-05-05T00:09:16.356Z,8.82
2023-05-05T00:09:27.788Z,8.77
2023-05-05T00:09:39.515Z,8.63
2023-05-05T00:09:51.138Z,8.40
2023-05-05T00:10:03.581Z,8.13
2023-05-05T00:10:15.007Z,8.43
2023-05-05T00:10:26.519Z,8.77
2023-05-05T00:10:37.884Z,8.85
2023-05-05T00:10:53.031Z,8.70
2023-05-05T00:11:04.538Z,8.43
2023-05-05T00:11:16.113Z,8.60
2023-05-05T00:11:27.532Z,8.57
2023-05-05T00:11:38.974Z,8.50
2023-05-05T00:11:50.371Z,8.40
2023-05-05T00:12:01.774Z,8.60
2023-05-05T00:12:13.286Z,8.70
2023-05-05T00:12:24.759Z,9.13
2023-05-05T00:12:36.204Z,9.15
2023-05-05T00:12:47.835Z,8.63
2023-05-05T00:12:59.241Z,8.60
2023-05-05T00:13:11.002Z,8.93
2023-05-05T00:13:23.306Z,9.00
2023-05-05T00:13:34.810Z,9.40
2023-05-05T00:13:46.867Z,8.65
2023-05-05T00:13:58.326Z,8.43
2023-05-05T00:14:09.800Z,8.35
2023-05-05T00:14:21.305Z,8.57
2023-05-05T00:14:32.676Z,8.98
2023-05-05T00:14:44.127Z,9.07
2023-05-05T00:14:55.756Z,8.88
2023-05-05T00:15:07.621Z,9.30
2023-05-05T00:15:19.056Z,9.50
2023-05-05T00:15:30.522Z,9.52
2023-05-05T00:15:43.347Z,9.23
2023-05-05T00:15:54.748Z,8.70
2023-05-05T00:16:06.466Z,8.63
2023-05-05T00:16:17.898Z,8.75
2023-05-05T00:16:29.394Z,9.32
2023-05-05T00:16:40.889Z,9.25
2023-05-05T00:16:52.361Z,8.55
2023-05-05T00:17:03.904Z,8.48
2023-05-05T00:17:15.485Z,8.75
2023-05-05T00:17:26.992Z,9.05
2023-05-05T00:17:38.482Z,9.27
2023-05-05T00:17:49.957Z,9.10
2023-05-05T00:18:01.893Z,8.90
2023-05-05T00:18:15.244Z,9.02
2023-05-05T00:18:26.874Z,8.60
2023-05-05T00:18:38.260Z,8.63
2023-05-05T00:18:49.654Z,8.43
2023-05-05T00:19:01.024Z,8.63
2023-05-05T00:19:12.481Z,8.60
2023-05-05T00:19:23.847Z,8.45
2023-05-05T00:19:35.237Z,8.50
2023-05-05T00:19:46.614Z,8.60
2023-05-05T00:19:58.010Z,8.40
2023-05-05T00:20:09.810Z,8.43
2023-05-05T00:20:21.869Z,8.23
2023-05-05T00:20:33.422Z,8.38
2023-05-05T00:20:45.634Z,8.75
2023-05-05T00:20:57.075Z,9.45
2023-05-05T00:21:08.454Z,9.27
2023-05-05T00:21:19.842Z,8.98
2023-05-05T00:21:31.272Z,8.55
2023-05-05T00:21:43.717Z,8.60
2023-05-05T00:21:55.048Z,8.60
2023-05-05T00:22:06.485Z,8.63
2023-05-05T00:22:17.892Z,8.60
2023-05-05T00:22:29.376Z,8.40
2023-05-05T00:22:40.814Z,8.57
2023-05-05T00:22:52.196Z,9.27
2023-05-05T00:23:03.816Z,9.45
2023-05-05T00:23:16.481Z,9.13
2023-05-05T00:23:27.932Z,8.90
2023-05-05T00:23:39.358Z,8.50
2023-05-05T00:23:50.865Z,8.43
2023-05-05T00:24:02.296Z,8.65
2023-05-05T00:24:13.788Z,8.98
2023-05-05T00:24:25.361Z,8.80
2023-05-05T00:24:36.785Z,8.77
2023-05-05T00:24:48.201Z,8.70
2023-05-05T00:24:59.670Z,8.63
2023-05-05T00:25:11.039Z,8.68
2023-05-05T00:25:22.496Z,8.77
2023-05-05T00:25:34.243Z,8.90
2023-05-05T00:25:45.702Z,8.82
2023-05-05T00:25:57.099Z,8.80
2023-05-05T00:26:08.658Z,8.40
2023-05-05T00:26:21.044Z,8.43
2023-05-05T00:26:32.443Z,8.60
2023-05-05T00:26:43.794Z,8.63
2023-05-05T00:26:55.170Z,8.77
2023-05-05T00:27:06.725Z,8.60
2023-05-05T00:27:18.168Z,8.35
2023-05-05T00:27:29.582Z,8.68
2023-05-05T00:27:41.108Z,8.70
2023-05-05T00:27:52.921Z,8.73
2023-05-05T00:28:06.655Z,8.95
2023-05-05T00:28:18.088Z,9.05
2023-05-05T00:28:29.744Z,8.82
2023-05-05T00:28:41.167Z,8.48
2023-05-05T00:28:52.568Z,8.63
2023-05-05T00:29:04.050Z,8.32
2023-05-05T00:29:15.429Z,8.73
2023-05-05T00:29:26.921Z,8.88
2023-05-05T00:29:38.379Z,9.23
2023-05-05T00:29:49.806Z,8.77
2023-05-05T00:30:01.339Z,8.50
2023-05-05T00:30:12.967Z,8.45
2023-05-05T00:30:24.604Z,8.60
2023-05-05T00:30:36.737Z,8.93
2023-05-05T00:30:48.277Z,9.07
2023-05-05T00:30:59.827Z,9.02
2023-05-05T00:31:12.564Z,8.55
2023-05-05T00:31:24.091Z,8.23
2023-05-05T00:31:35.636Z,8.30
2023-05-05T00:31:47.083Z,8.25
2023-05-05T00:31:58.508Z,8.73
2023-05-05T00:32:09.958Z,8.60
2023-05-05T00:32:21.444Z,8.52
2023-05-05T00:32:32.855Z,8.23
2023-05-05T00:32:44.567Z,8.52
2023-05-05T00:32:56.204Z,8.68
2023-05-05T00:33:07.831Z,8.18
2023-05-05T00:33:19.266Z,7.90
2023-05-05T00:33:30.814Z,8.30
2023-05-05T00:33:42.582Z,8.60
2023-05-05T00:33:54.748Z,8.63
2023-05-05T00:34:06.200Z,8.75
2023-05-05T00:34:17.780Z,8.50
2023-05-05T00:34:29.115Z,8.45
2023-05-05T00:34:40.484Z,8.25
2023-05-05T00:34:51.974Z,8.57
2023-05-05T00:35:03.489Z,8.75
2023-05-05T00:35:18.259Z,8.73
2023-05-05T00:35:29.732Z,8.43
2023-05-05T00:35:41.228Z,8.05
2023-05-05T00:35:52.638Z,8.10
2023-05-05T00:36:04.105Z,8.60
2023-05-05T00:36:15.516Z,8.65
2023-05-05T00:36:26.946Z,8.93
2023-05-05T00:36:38.356Z,8.98
2023-05-05T00:36:49.728Z,8.82
2023-05-05T00:37:01.144Z,8.55
2023-05-05T00:37:12.551Z,8.45
2023-05-05T00:37:23.999Z,8.55
2023-05-05T00:37:35.576Z,8.85
2023-05-05T00:37:47.064Z,8.35
2023-05-05T00:37:58.490Z,8.52
2023-05-05T00:38:09.961Z,8.52
2023-05-05T00:38:21.424Z,8.85
2023-05-05T00:38:32.795Z,8.52
2023-05-05T00:38:44.365Z,8.10
2023-05-05T00:38:55.831Z,8.13
2023-05-05T00:39:07.266Z,8.27
2023-05-05T00:39:18.683Z,8.20
2023-05-05T00:39:30.150Z,8.23
2023-05-05T00:39:41.553Z,8.70
2023-05-05T00:39:53.001Z,8.95
2023-05-05T00:40:04.975Z,9.07
2023-05-05T00:40:16.597Z,8.35
2023-05-05T00:40:28.055Z,8.00
2023-05-05T00:40:39.569Z,8.45
2023-05-05T00:40:50.949Z,8.63
2023-05-05T00:41:02.394Z,8.15
2023-05-05T00:41:13.891Z,8.07
2023-05-05T00:41:25.500Z,8.57
2023-05-05T00:41:36.927Z,8.82
2023-05-05T00:41:50.969Z,8.38
2023-05-05T00:42:02.385Z,8.52
2023-05-05T00:42:13.844Z,8.50
2023-05-05T00:42:26.717Z,8.30
2023-05-05T00:42:42.241Z,8.80
2023-05-05T00:42:53.656Z,9.43
2023-05-05T00:43:05.128Z,9.20
2023-05-05T00:43:16.596Z,8.95
2023-05-05T00:43:28.034Z,8.80
2023-05-05T00:43:39.450Z,9.05
2023-05-05T00:43:50.897Z,9.15
2023-05-05T00:44:02.311Z,9.10
2023-05-05T00:44:14.100Z,9.00
2023-05-05T00:44:51.801Z,8.90
2023-05-05T00:45:03.299Z,8.82
2023-05-05T00:45:16.501Z,8.93
2023-05-05T00:45:28.152Z,9.40
2023-05-05T00:45:39.932Z,9.43
2023-05-05T00:46:02.253Z,8.85
2023-05-05T00:46:33.800Z,9.73
2023-05-05T00:46:45.430Z,9.02
2023-05-05T00:46:56.940Z,8.75
2023-05-05T00:47:09.571Z,8.88
2023-05-05T00:47:21.102Z,9.00
2023-05-05T00:47:32.809Z,8.70
2023-05-05T00:48:02.762Z,8.60
2023-05-05T00:48:14.437Z,8.77
2023-05-05T00:48:25.924Z,8.68
2023-05-05T00:48:38.641Z,8.55
2023-05-05T00:48:51.233Z,8.57
2023-05-05T00:49:03.217Z,8.82
2023-05-05T00:49:15.304Z,9.05
2023-05-05T00:49:26.873Z,9.00
2023-05-05T00:49:39.665Z,8.70
2023-05-05T00:49:51.090Z,9.05
2023-05-05T00:50:08.802Z,8.85
2023-05-05T00:50:27.907Z,8.73
2023-05-05T00:50:40.105Z,8.65
2023-05-05T00:50:51.836Z,8.55
2023-05-05T00:51:03.292Z,8.70
2023-05-05T00:51:16.701Z,8.85
2023-05-05T00:51:28.402Z,8.75
2023-05-05T00:51:39.871Z,8.68
2023-05-05T00:51:52.439Z,8.57
2023-05-05T00:52:11.788Z,8.77
2023-05-05T00:52:25.742Z,8.88
2023-05-05T00:52:38.385Z,8.65
2023-05-05T00:53:13.210Z,8.60
2023-05-05T00:53:26.628Z,8.35
2023-05-05T00:53:50.317Z,8.45
2023-05-05T00:54:04.156Z,9.02
2023-05-05T00:54:15.812Z,9.00
2023-05-05T00:54:27.828Z,8.80
2023-05-05T00:54:39.388Z,8.73
2023-05-05T00:54:50.855Z,8.77
2023-05-05T00:55:03.155Z,8.77
2023-05-05T00:55:14.746Z,9.02
2023-05-05T00:55:26.442Z,8.90
2023-05-05T00:55:37.878Z,8.80
2023-05-05T00:55:49.839Z,8.80
2023-05-05T00:56:01.961Z,8.73
2023-05-05T00:56:14.325Z,8.68
2023-05-05T00:56:25.850Z,8.77
2023-05-05T00:56:37.302Z,9.20
2023-05-05T00:56:50.302Z,8.85
2023-05-05T00:57:02.812Z,8.48
2023-05-05T00:57:14.318Z,8.15
2023-05-05T00:57:26.325Z,8.65
2023-05-05T00:57:37.934Z,8.70
2023-05-05T00:57:49.820Z,8.57
2023-05-05T00:58:02.659Z,9.05
2023-05-05T00:58:14.138Z,9.10
2023-05-05T00:58:25.652Z,8.90
2023-05-05T00:58:37.123Z,8.35
2023-05-05T00:58:49.264Z,8.52
2023-05-05T00:59:02.659Z,8.90
2023-05-05T00:59:14.126Z,8.93
2023-05-05T00:59:27.411Z,8.52
2023-05-05T00:59:38.933Z,8.52
2023-05-05T00:59:51.181Z,8.82
2023-05-05T01:00:03.185Z,8.88
2023-05-05T01:00:14.900Z,8.68
2023-05-05T01:00:29.599Z,9.00
2023-05-05T01:00:41.179Z,9.15
2023-05-05T01:00:52.632Z,9.38
2023-05-05T01:01:04.293Z,8.88
2023-05-05T01:01:15.763Z,8.57
2023-05-05T01:01:27.336Z,8.48
2023-05-05T01:01:38.986Z,8.57
2023-05-05T01:01:50.529Z,8.55
2023-05-05T01:02:02.397Z,8.75
2023-05-05T01:02:14.014Z,8.60
2023-05-05T01:02:25.702Z,8.30
2023-05-05T01:02:38.379Z,8.30
2023-05-05T01:02:49.852Z,8.23
2023-05-05T01:03:01.413Z,8.30
2023-05-05T01:03:13.126Z,8.50
2023-05-05T01:03:24.908Z,8.93
2023-05-05T01:03:40.424Z,9.10
2023-05-05T01:03:52.376Z,8.70
2023-05-05T01:04:04.106Z,8.30
2023-05-05T01:04:15.665Z,8.10
2023-05-05T01:04:27.427Z,7.95
2023-05-05T01:04:38.853Z,8.65
2023-05-05T01:04:50.187Z,8.75
2023-05-05T01:05:02.937Z,8.48
2023-05-05T01:05:16.076Z,8.15
2023-05-05T01:05:33.997Z,8.23
2023-05-05T01:06:07.319Z,7.82
2023-05-05T01:06:44.985Z,8.60
2023-05-05T01:07:07.582Z,8.27
2023-05-05T01:07:37.636Z,8.60
2023-05-05T01:08:16.976Z,8.18
2023-05-05T01:08:55.676Z,8.93
2023-05-05T01:09:55.549Z,8.80
2023-05-05T01:10:48.374Z,8.98
2023-05-05T01:11:10.168Z,8.18
2023-05-05T01:12:00.359Z,8.52
2023-05-05T01:12:20.786Z,9.05
2023-05-05T01:12:38.367Z,9.07
2023-05-05T01:13:06.805Z,8.48
2023-05-05T01:13:36.317Z,8.70
2023-05-05T01:13:56.767Z,8.13
2023-05-05T01:14:15.979Z,8.50
2023-05-05T01:14:45.488Z,8.70
2023-05-05T01:15:16.474Z,9.02
2023-05-05T01:15:57.257Z,8.77
2023-05-05T01:16:16.700Z,8.38
2023-05-05T01:16:31.727Z,8.60
2023-05-05T01:17:10.278Z,8.73
2023-05-05T01:17:38.601Z,9.13
2023-05-05T01:18:04.073Z,8.77
2023-05-05T01:18:41.941Z,8.90
2023-05-05T01:19:18.882Z,8.75
2023-05-05T01:19:58.731Z,8.68
2023-05-05T01:20:35.106Z,8.20
2023-05-05T01:20:53.256Z,8.52
2023-05-05T01:21:13.436Z,8.38
2023-05-05T01:21:30.751Z,8.68
2023-05-05T01:21:48.242Z,8.88
2023-05-05T01:22:03.498Z,9.15
2023-05-05T01:22:18.162Z,9.45
2023-05-05T01:22:37.621Z,9.35
2023-05-05T01:23:02.256Z,9.13
2023-05-05T01:23:30.065Z,9.02
2023-05-05T01:24:22.328Z,9.25
2023-05-05T01:24:33.665Z,8.85
2023-05-05T01:25:08.164Z,8.90
2023-05-05T01:25:44.006Z,9.02
2023-05-05T01:26:06.298Z,8.52
2023-05-05T01:26:32.019Z,8.82
2023-05-05T01:27:06.212Z,9.48
2023-05-05T01:27:47.299Z,8.52
2023-05-05T01:28:24.393Z,8.80
2023-05-05T01:28:48.935Z,8.98
2023-05-05T01:29:14.007Z,8.82
2023-05-05T01:29:58.305Z,8.98
2023-05-05T01:30:28.324Z,8.40
2023-05-05T01:30:54.472Z,8.88
2023-05-05T01:31:37.846Z,9.63
2023-05-05T01:31:54.866Z,9.07
2023-05-05T01:32:20.805Z,8.82
2023-05-05T01:32:38.578Z,9.13
2023-05-05T01:32:53.096Z,8.65
2023-05-05T01:33:08.472Z,8.82
2023-05-05T01:33:25.587Z,8.85
2023-05-05T01:33:45.722Z,8.80
2023-05-05T01:34:04.248Z,8.85
2023-05-05T01:34:19.262Z,9.18
2023-05-05T01:34:39.245Z,9.15
2023-05-05T01:34:58.456Z,8.63
2023-05-05T01:35:15.558Z,8.80
2023-05-05T01:35:35.661Z,9.00
2023-05-05T01:35:52.377Z,8.52
2023-05-05T01:36:10.432Z,8.85
2023-05-05T01:36:31.176Z,8.48
2023-05-05T01:36:48.984Z,9.00
2023-05-05T01:37:18.174Z,8.80
2023-05-05T01:37:40.465Z,9.25
2023-05-05T01:37:56.491Z,8.15
2023-05-05T01:38:23.039Z,8.30
2023-05-05T01:38:45.683Z,8.80
2023-05-05T01:39:00.747Z,8.93
2023-05-05T01:39:15.879Z,8.82
2023-05-05T01:39:31.750Z,9.10
2023-05-05T01:39:46.294Z,8.93
2023-05-05T01:40:03.369Z,8.80
2023-05-05T01:40:17.383Z,9.07
2023-05-05T01:40:33.457Z,8.93
2023-05-05T01:40:52.155Z,8.82
2023-05-05T01:41:21.896Z,8.57
2023-05-05T01:41:46.981Z,9.07
2023-05-05T01:42:04.798Z,8.68
2023-05-05T01:42:17.508Z,8.35
2023-05-05T01:42:29.772Z,8.27
2023-05-05T01:42:43.088Z,8.23
2023-05-05T01:42:56.202Z,8.68
2023-05-05T01:43:10.520Z,8.95
2023-05-05T01:43:23.284Z,9.02
2023-05-05T01:43:39.103Z,8.98
2023-05-05T01:43:54.142Z,9.15
2023-05-05T01:44:07.934Z,9.13
2023-05-05T01:44:20.128Z,8.23
2023-05-05T01:44:34.747Z,7.90
2023-05-05T01:44:50.503Z,8.77
2023-05-05T01:45:07.796Z,9.48
2023-05-05T01:45:24.660Z,8.98
2023-05-05T01:45:39.871Z,8.77
2023-05-05T01:45:53.570Z,8.70
2023-05-05T01:46:08.591Z,8.68
2023-05-05T01:46:23.669Z,8.38
2023-05-05T01:46:36.453Z,8.45
2023-05-05T01:46:50.230Z,8.85
2023-05-05T01:47:04.110Z,8.40
2023-05-05T01:47:18.587Z,8.48
2023-05-05T01:47:31.629Z,9.23
2023-05-05T01:47:44.524Z,9.07
2023-05-05T01:47:57.140Z,8.57
2023-05-05T01:48:09.431Z,8.70
2023-05-05T01:48:22.878Z,9.52
2023-05-05T01:48:34.693Z,9.82
2023-05-05T01:48:48.228Z,9.35
2023-05-05T01:48:59.996Z,8.63
2023-05-05T01:49:13.717Z,8.70
2023-05-05T01:49:26.946Z,9.05
2023-05-05T01:49:38.652Z,8.60
2023-05-05T01:49:50.922Z,8.70
2023-05-05T01:50:04.299Z,9.07
2023-05-05T01:50:16.696Z,8.70
2023-05-05T01:50:28.799Z,8.77
2023-05-05T01:50:42.188Z,8.93
2023-05-05T01:50:54.130Z,8.90
2023-05-05T01:51:06.700Z,8.57
2023-05-05T01:51:20.731Z,8.73
2023-05-05T01:51:32.524Z,8.40
2023-05-05T01:51:47.735Z,8.30
2023-05-05T01:52:00.810Z,8.95
2023-05-05T01:52:14.329Z,9.32
2023-05-05T01:52:28.016Z,9.50
2023-05-05T01:52:40.865Z,9.15
2023-05-05T01:52:53.648Z,8.52
2023-05-05T01:53:06.957Z,8.43
2023-05-05T01:53:20.121Z,8.57
2023-05-05T01:53:33.099Z,8.80
2023-05-05T01:53:44.532Z,8.52
2023-05-05T01:53:59.082Z,8.68
2023-05-05T01:54:10.617Z,8.57
2023-05-05T01:54:23.582Z,8.52
2023-05-05T01:54:35.310Z,8.88
2023-05-05T01:54:48.708Z,8.57
2023-05-05T01:55:02.182Z,8.47
2023-05-05T01:55:17.458Z,8.30
2023-05-05T01:55:30.695Z,8.63
2023-05-05T01:55:43.576Z,9.38
2023-05-05T01:55:57.721Z,9.18
2023-05-05T01:56:11.645Z,9.15
2023-05-05T01:56:25.118Z,8.95
2023-05-05T01:56:40.047Z,9.13
2023-05-05T01:56:54.144Z,9.68
2023-05-05T01:57:08.548Z,9.70
2023-05-05T01:57:20.756Z,9.43
2023-05-05T01:57:33.311Z,9.05
2023-05-05T01:57:47.230Z,8.90
2023-05-05T01:58:00.126Z,9.13
2023-05-05T01:58:13.571Z,9.07
2023-05-05T01:58:27.515Z,8.88
2023-05-05T01:58:40.891Z,9.30
2023-05-05T01:58:54.482Z,9.40
2023-05-05T01:59:06.860Z,9.23
2023-05-05T01:59:20.351Z,9.23
2023-05-05T01:59:33.581Z,8.80
2023-05-05T01:59:45.199Z,8.27
2023-05-05T01:59:58.676Z,8.48
2023-05-05T02:00:11.219Z,8.90
2023-05-05T02:00:23.382Z,9.00
2023-05-05T02:00:35.134Z,8.63
2023-05-05T02:00:47.695Z,8.68
2023-05-05T02:01:00.388Z,8.93
2023-05-05T02:01:13.178Z,9.18
2023-05-05T02:01:26.207Z,8.82
2023-05-05T02:01:40.828Z,9.23
2023-05-05T02:01:52.898Z,9.15
2023-05-05T02:02:06.016Z,9.18
2023-05-05T02:02:19.729Z,8.82
2023-05-05T02:02:34.928Z,8.70
2023-05-05T02:02:48.093Z,8.93
2023-05-05T02:03:01.079Z,9.60
2023-05-05T02:03:14.777Z,9.52
2023-05-05T02:03:28.911Z,9.23
2023-05-05T02:03:41.906Z,8.95
2023-05-05T02:03:55.190Z,9.30
2023-05-05T02:04:07.648Z,9.75
2023-05-05T02:04:20.358Z,9.48
2023-05-05T02:04:34.476Z,9.80
2023-05-05T02:04:47.044Z,9.48
2023-05-05T02:04:59.255Z,9.07
2023-05-05T02:05:12.435Z,9.15
2023-05-05T02:05:25.656Z,9.27
2023-05-05T02:05:39.625Z,9.45
2023-05-05T02:05:53.082Z,9.20
2023-05-05T02:06:07.289Z,8.90
2023-05-05T02:06:22.268Z,9.35
2023-05-05T02:06:35.315Z,9.50
2023-05-05T02:06:47.742Z,9.38
2023-05-05T02:07:01.009Z,9.70
2023-05-05T02:07:13.967Z,10.27
2023-05-05T02:07:26.983Z,9.93
2023-05-05T02:07:39.200Z,9.82
2023-05-05T02:07:52.219Z,9.43
2023-05-05T02:08:06.372Z,9.30
2023-05-05T02:08:19.466Z,9.20
2023-05-05T02:08:31.425Z,9.20
2023-05-05T02:08:44.353Z,9.60
2023-05-05T02:08:57.478Z,9.77
2023-05-05T02:09:12.414Z,9.55
2023-05-05T02:09:25.561Z,9.50
2023-05-05T02:09:38.536Z,10.02
2023-05-05T02:09:51.625Z,9.20
2023-05-05T02:10:04.705Z,8.75
2023-05-05T02:10:16.450Z,9.15
2023-05-05T02:10:28.550Z,9.43
2023-05-05T02:10:40.680Z,9.27
2023-05-05T02:10:54.066Z,9.75
2023-05-05T02:11:06.476Z,10.25
2023-05-05T02:11:19.986Z,9.88
2023-05-05T02:11:31.640Z,9.48
2023-05-05T02:11:44.770Z,9.40
2023-05-05T02:11:58.681Z,9.45
2023-05-05T02:12:11.000Z,10.10
2023-05-05T02:12:23.126Z,9.65
2023-05-05T02:12:37.171Z,9.25
2023-05-05T02:12:51.616Z,9.48
2023-05-05T02:13:04.442Z,9.73
2023-05-05T02:13:18.061Z,9.60
2023-05-05T02:13:31.695Z,9.48
2023-05-05T02:13:44.618Z,10.00
2023-05-05T02:13:56.211Z,10.25
2023-05-05T02:14:09.095Z,9.82
2023-05-05T02:14:21.679Z,9.52
2023-05-05T02:14:34.486Z,9.13
2023-05-05T02:14:46.953Z,9.07
2023-05-05T02:15:00.068Z,8.80
2023-05-05T02:15:14.141Z,9.10
2023-05-05T02:15:27.814Z,9.32
2023-05-05T02:15:40.784Z,9.43
2023-05-05T02:15:54.833Z,9.50
2023-05-05T02:16:07.469Z,9.55
2023-05-05T02:16:20.459Z,9.18
2023-05-05T02:16:33.342Z,9.25
2023-05-05T02:16:45.624Z,9.70
2023-05-05T02:16:58.192Z,10.18
2023-05-05T02:17:12.412Z,9.68
2023-05-05T02:17:25.397Z,9.10
2023-05-05T02:17:40.432Z,9.35
2023-05-05T02:17:52.371Z,9.48
2023-05-05T02:18:05.872Z,9.82
2023-05-05T02:18:18.594Z,9.95
2023-05-05T02:18:31.012Z,9.65
2023-05-05T02:18:43.085Z,9.45
2023-05-05T02:19:02.973Z,9.32
2023-05-05T02:19:15.210Z,9.17
2023-05-05T02:19:33.998Z,9.32
2023-05-05T02:19:47.639Z,9.53
2023-05-05T02:20:02.075Z,9.48
2023-05-05T02:20:16.088Z,9.23
2023-05-05T02:20:30.063Z,9.13
2023-05-05T02:20:41.558Z,9.25
2023-05-05T02:20:53.176Z,9.02
2023-05-05T02:21:04.718Z,9.25
2023-05-05T02:21:16.679Z,9.60
2023-05-05T02:21:28.198Z,9.70
2023-05-05T02:21:40.684Z,9.45
2023-05-05T02:21:52.179Z,9.32
2023-05-05T02:22:03.969Z,9.20
2023-05-05T02:22:15.584Z,9.20
2023-05-05T02:22:27.862Z,9.07
2023-05-05T02:22:40.096Z,9.10
2023-05-05T02:22:51.547Z,9.25
2023-05-05T02:23:03.022Z,9.45
2023-05-05T02:23:14.430Z,9.77
2023-05-05T02:23:25.899Z,9.70
2023-05-05T02:23:38.446Z,9.30
2023-05-05T02:23:49.968Z,9.18
2023-05-05T02:24:02.029Z,9.43
2023-05-05T02:24:13.576Z,9.73
2023-05-05T02:24:25.405Z,10.10
2023-05-05T02:24:36.874Z,10.05
2023-05-05T02:24:48.409Z,9.90
2023-05-05T02:24:59.912Z,9.98
2023-05-05T02:25:11.835Z,9.88
2023-05-05T02:25:29.203Z,9.98
2023-05-05T02:25:43.295Z,10.07
2023-05-05T02:26:04.672Z,10.30
2023-05-05T02:26:17.182Z,10.00
2023-05-05T02:26:31.563Z,9.57
2023-05-05T02:26:44.102Z,10.02
2023-05-05T02:26:57.793Z,10.18
2023-05-05T02:27:11.627Z,9.95
2023-05-05T02:27:25.411Z,9.82
2023-05-05T02:27:40.575Z,9.75
2023-05-05T02:27:57.210Z,9.52
2023-05-05T02:28:17.811Z,9.60
2023-05-05T02:28:42.736Z,9.77
2023-05-05T02:29:07.689Z,9.40
2023-05-05T02:29:42.427Z,9.80
2023-05-05T02:29:58.602Z,9.65
2023-05-05T02:30:13.599Z,9.35
2023-05-05T02:30:27.354Z,9.18
2023-05-05T02:30:39.664Z,9.60
2023-05-05T02:30:59.407Z,9.65
2023-05-05T02:31:13.789Z,9.55
2023-05-05T02:31:28.632Z,9.48
2023-05-05T02:31:45.328Z,9.32
2023-05-05T02:32:06.725Z,9.50
2023-05-05T02:32:31.222Z,9.55
2023-05-05T02:32:50.869Z,9.38
2023-05-05T02:33:08.137Z,9.98
2023-05-05T02:33:22.443Z,9.77
2023-05-05T02:33:35.336Z,9.90
2023-05-05T02:33:49.511Z,9.95
2023-05-05T02:34:04.151Z,9.75
2023-05-05T02:34:22.309Z,9.70
2023-05-05T02:34:36.791Z,9.70
2023-05-05T02:34:50.169Z,9.65
2023-05-05T02:35:09.168Z,9.63
2023-05-05T02:35:24.683Z,9.38
2023-05-05T02:35:39.727Z,9.65
2023-05-05T02:35:53.391Z,9.73
2023-05-05T02:36:13.789Z,9.48
2023-05-05T02:36:29.238Z,9.90
2023-05-05T02:36:42.435Z,9.88
2023-05-05T02:36:58.173Z,10.00
2023-05-05T02:37:12.500Z,9.88
2023-05-05T02:37:27.318Z,9.52
2023-05-05T02:37:40.475Z,9.18
2023-05-05T02:38:00.459Z,9.05
2023-05-05T02:38:17.664Z,9.38
2023-05-05T02:38:30.442Z,9.82
2023-05-05T02:38:45.020Z,9.98
2023-05-05T02:39:00.772Z,9.77
2023-05-05T02:39:24.941Z,9.80
2023-05-05T02:39:51.566Z,9.90
2023-05-05T02:40:08.156Z,9.40
2023-05-05T02:40:23.692Z,9.13
2023-05-05T02:40:36.033Z,9.57
2023-05-05T02:40:49.672Z,9.48
2023-05-05T02:41:02.679Z,9.45
2023-05-05T02:41:18.227Z,9.82
2023-05-05T02:41:33.204Z,9.77
2023-05-05T02:41:47.216Z,9.73
2023-05-05T02:42:02.156Z,9.98
2023-05-05T02:42:18.414Z,9.82
2023-05-05T02:42:36.202Z,9.55
2023-05-05T02:42:49.706Z,9.10
2023-05-05T02:43:05.722Z,9.20
2023-05-05T02:43:21.880Z,9.40
2023-05-05T02:43:36.182Z,9.63
2023-05-05T02:43:49.952Z,9.75
2023-05-05T02:44:04.249Z,9.88
2023-05-05T02:44:16.983Z,9.80
2023-05-05T02:44:31.395Z,9.75
2023-05-05T02:44:45.362Z,9.57
2023-05-05T02:45:01.430Z,9.48
2023-05-05T02:45:17.246Z,9.18
2023-05-05T02:45:29.324Z,9.40
2023-05-05T02:45:40.862Z,9.73
2023-05-05T02:45:52.423Z,9.20
2023-05-05T02:46:03.877Z,9.07
2023-05-05T02:46:15.964Z,9.10
2023-05-05T02:46:28.048Z,9.35
2023-05-05T02:46:39.651Z,9.48
2023-05-05T02:46:51.421Z,9.60
2023-05-05T02:47:03.573Z,9.57
2023-05-05T02:47:15.069Z,9.30
2023-05-05T02:47:36.063Z,9.30
2023-05-05T02:47:47.829Z,9.73
2023-05-05T02:48:05.488Z,9.98
2023-05-05T02:48:16.965Z,9.98
2023-05-05T02:48:28.403Z,9.43
2023-05-05T02:48:40.024Z,9.35
2023-05-05T02:48:51.455Z,9.73
2023-05-05T02:49:02.877Z,9.70
2023-05-05T02:49:15.205Z,9.57
2023-05-05T02:49:26.970Z,9.48
2023-05-05T02:49:38.407Z,10.02
2023-05-05T02:49:49.823Z,9.77
2023-05-05T02:50:01.649Z,9.27
2023-05-05T02:50:13.096Z,9.68
2023-05-05T02:50:24.527Z,9.68
2023-05-05T02:50:36.042Z,9.68
2023-05-05T02:50:47.474Z,9.57
2023-05-05T02:50:58.944Z,9.55
2023-05-05T02:51:10.479Z,9.52
2023-05-05T02:51:21.855Z,9.75
2023-05-05T02:51:33.332Z,9.60
2023-05-05T02:51:44.778Z,9.85
2023-05-05T02:51:56.393Z,10.05
2023-05-05T02:52:07.862Z,10.00
2023-05-05T02:52:19.491Z,9.32
2023-05-05T02:52:32.332Z,9.38
2023-05-05T02:52:44.765Z,9.73
2023-05-05T02:53:01.656Z,9.93
2023-05-05T02:53:13.363Z,9.63
2023-05-05T02:53:26.843Z,9.40
2023-05-05T02:53:38.555Z,9.57
2023-05-05T02:53:50.007Z,9.80
2023-05-05T02:54:01.841Z,9.60
2023-05-05T02:54:13.508Z,9.25
2023-05-05T02:54:28.180Z,9.43
2023-05-05T02:54:39.793Z,9.73
2023-05-05T02:54:51.484Z,9.32
2023-05-05T02:55:04.749Z,9.20
2023-05-05T02:55:16.151Z,8.93
2023-05-05T02:55:44.982Z,9.25
2023-05-05T02:56:26.297Z,9.02
2023-05-05T02:56:44.068Z,9.95
2023-05-05T02:56:57.242Z,10.05
2023-05-05T02:57:14.033Z,9.85
2023-05-05T02:57:53.621Z,9.70
2023-05-05T02:58:13.551Z,9.02
2023-05-05T02:58:27.652Z,8.90
2023-05-05T02:59:07.965Z,9.38
2023-05-05T02:59:44.521Z,9.57
2023-05-05T03:00:10.622Z,9.55
2023-05-05T03:00:47.370Z,9.40
2023-05-05T03:01:18.135Z,9.82
2023-05-05T03:01:47.484Z,9.65
2023-05-05T03:02:20.855Z,9.18
2023-05-05T03:02:51.604Z,9.63
2023-05-05T03:03:22.315Z,9.73
2023-05-05T03:03:59.275Z,10.23
2023-05-05T03:04:16.126Z,9.88
2023-05-05T03:04:38.211Z,9.88
2023-05-05T03:04:56.286Z,9.82
2023-05-05T03:05:22.280Z,10.02
2023-05-05T03:05:42.302Z,9.35
2023-05-05T03:06:11.191Z,9.88
2023-05-05T03:06:26.423Z,9.75
2023-05-05T03:06:43.503Z,9.43
2023-05-05T03:06:59.555Z,9.70
2023-05-05T03:07:16.297Z,10.10
2023-05-05T03:07:53.014Z,9.95
2023-05-05T03:08:26.608Z,9.48
2023-05-05T03:08:49.253Z,9.88
2023-05-05T03:09:09.692Z,9.57
2023-05-05T03:09:46.560Z,10.00
2023-05-05T03:10:06.319Z,9.60
2023-05-05T03:10:21.051Z,10.13
2023-05-05T03:10:44.079Z,10.43
2023-05-05T03:11:34.647Z,9.95
2023-05-05T03:12:01.821Z,9.73
2023-05-05T03:12:20.099Z,9.98
2023-05-05T03:12:38.454Z,10.25
2023-05-05T03:12:58.534Z,9.57
2023-05-05T03:13:12.032Z,9.35
2023-05-05T03:13:26.360Z,9.57
2023-05-05T03:13:42.369Z,9.55
2023-05-05T03:14:17.593Z,10.10
2023-05-05T03:14:35.004Z,9.43
2023-05-05T03:14:48.642Z,9.43
2023-05-05T03:15:01.687Z,9.52
2023-05-05T03:15:14.183Z,9.82
2023-05-05T03:15:48.084Z,10.07
2023-05-05T03:16:01.452Z,9.60
2023-05-05T03:16:15.281Z,9.63
2023-05-05T03:16:31.070Z,9.50
2023-05-05T03:16:44.406Z,9.73
2023-05-05T03:16:57.124Z,9.70
2023-05-05T03:17:11.903Z,9.27
2023-05-05T03:17:24.930Z,9.50
2023-05-05T03:17:37.156Z,9.63
2023-05-05T03:17:50.374Z,9.27
2023-05-05T03:18:03.295Z,9.65
2023-05-05T03:18:16.655Z,10.05
2023-05-05T03:18:29.817Z,9.70
2023-05-05T03:18:42.730Z,9.90
2023-05-05T03:18:55.015Z,9.68
2023-05-05T03:19:10.229Z,9.38
2023-05-05T03:19:23.179Z,9.18
2023-05-05T03:19:36.868Z,9.40
2023-05-05T03:19:49.346Z,9.75
2023-05-05T03:20:03.403Z,9.32
2023-05-05T03:20:15.926Z,9.40